Time;durP1;ratioP1;P1;durP2;ratioP2;P2;SDS_P1;SDS_P2;PMS_P1;PMS_P2;Temp;Humidity;BMP_temperature;BMP_pressure;BME280_temperature;BME280_humidity;BME280_pressure;Samples;Min_cycle;Max_cycle;Signal;HPM_P1;HPM_P2
2022/12/03 00:02:06;;;;;;;56.23;22.53;;;0.20;99.90;;;;;;5012480;28;20535;-84
2022/12/03 00:04:32;;;;;;;49.43;20.27;;;0.10;99.90;;;;;;4996504;28;20187;-85
2022/12/03 00:06:58;;;;;;;53.23;22.00;;;0.10;99.90;;;;;;5013541;28;20560;-87
2022/12/03 00:09:24;;;;;;;51.80;19.73;;;0.20;99.90;;;;;;4996279;28;20551;-85
2022/12/03 00:11:49;;;;;;;51.83;20.27;;;0.20;99.90;;;;;;4996485;28;20519;-87
2022/12/03 00:14:15;;;;;;;51.70;19.77;;;0.20;99.90;;;;;;4995879;28;20206;-86
2022/12/03 00:16:42;;;;;;;49.70;20.23;;;0.20;99.90;;;;;;4996325;28;20262;-86
2022/12/03 00:19:08;;;;;;;48.60;20.83;;;0.20;99.90;;;;;;4996227;28;20178;-85
2022/12/03 00:21:34;;;;;;;50.90;21.70;;;0.20;99.90;;;;;;5012265;28;20207;-86
2022/12/03 00:24:00;;;;;;;47.23;20.60;;;0.20;99.90;;;;;;4996337;28;20317;-87
2022/12/03 00:26:26;;;;;;;48.77;19.63;;;0.20;99.90;;;;;;5013731;28;20180;-85
2022/12/03 00:28:53;;;;;;;49.43;19.97;;;0.20;99.90;;;;;;4999621;28;20561;-87
2022/12/03 00:31:22;;;;;;;41.97;18.53;;;0.20;99.90;;;;;;4999723;28;20181;-86
2022/12/03 00:33:48;;;;;;;48.43;20.00;;;0.10;99.90;;;;;;4999694;28;20207;-86
2022/12/03 00:36:15;;;;;;;45.70;20.10;;;0.20;99.90;;;;;;4999616;28;20183;-85
2022/12/03 00:38:41;;;;;;;47.37;19.03;;;0.10;99.90;;;;;;4999554;28;20179;-85
2022/12/03 00:41:07;;;;;;;40.73;18.00;;;0.20;99.90;;;;;;5016958;28;20186;-83
2022/12/03 00:43:32;;;;;;;45.63;19.90;;;0.10;99.90;;;;;;5015821;28;20513;-86
2022/12/03 00:45:58;;;;;;;46.67;20.23;;;0.20;99.90;;;;;;4998815;28;20187;-85
2022/12/03 00:48:24;;;;;;;49.57;20.27;;;0.10;99.90;;;;;;5015758;28;20188;-86
2022/12/03 00:50:50;;;;;;;46.23;20.23;;;0.10;99.90;;;;;;4999388;28;20237;-87
2022/12/03 00:53:16;;;;;;;52.40;21.13;;;0.20;99.90;;;;;;5016141;28;20183;-87
2022/12/03 00:55:41;;;;;;;53.30;20.67;;;0.20;99.90;;;;;;5015791;28;20295;-88
2022/12/03 00:58:08;;;;;;;46.73;19.90;;;0.10;99.90;;;;;;5015497;28;20179;-87
2022/12/03 01:00:35;;;;;;;47.27;19.73;;;0.10;99.90;;;;;;5015769;28;20562;-88
2022/12/03 01:03:01;;;;;;;46.93;20.13;;;0.10;99.90;;;;;;5015302;28;20662;-88
2022/12/03 01:05:27;;;;;;;49.60;19.67;;;0.10;99.90;;;;;;5015157;28;20529;-85
2022/12/03 01:07:53;;;;;;;49.50;19.50;;;0.10;99.90;;;;;;5015232;28;20275;-84
2022/12/03 01:10:19;;;;;;;45.40;19.13;;;0.10;99.90;;;;;;5016385;28;20607;-84
2022/12/03 01:12:44;;;;;;;46.70;20.30;;;0.10;99.90;;;;;;5015535;28;20194;-85
2022/12/03 01:15:11;;;;;;;49.13;21.30;;;0.10;99.90;;;;;;5015423;28;20183;-86
2022/12/03 01:17:37;;;;;;;39.40;17.07;;;0.10;99.90;;;;;;4999053;28;20206;-87
2022/12/03 01:20:04;;;;;;;42.70;17.73;;;0.10;99.90;;;;;;5015078;28;20614;-85
2022/12/03 01:22:30;;;;;;;39.00;17.27;;;0.00;99.90;;;;;;5015210;28;20219;-88
2022/12/03 01:24:56;;;;;;;40.70;16.80;;;0.10;99.90;;;;;;5016000;28;20187;-89
2022/12/03 01:27:22;;;;;;;40.20;18.23;;;0.10;99.90;;;;;;4998569;28;20187;-88
2022/12/03 01:29:48;;;;;;;42.27;18.03;;;0.10;99.90;;;;;;4998667;28;20254;-84
2022/12/03 01:32:18;;;;;;;44.57;17.53;;;0.10;99.90;;;;;;5016089;28;20176;-86
2022/12/03 01:34:49;;;;;;;40.73;17.90;;;0.00;99.90;;;;;;4998399;28;20179;-86
2022/12/03 01:37:18;;;;;;;41.67;18.17;;;0.00;99.90;;;;;;4998391;28;20521;-87
2022/12/03 01:39:44;;;;;;;42.13;16.97;;;0.10;99.90;;;;;;4997977;28;20266;-87
2022/12/03 01:42:32;;;;;;;40.63;17.53;;;0.00;99.90;;;;;;4998335;28;20350;-87
2022/12/03 01:45:00;;;;;;;34.00;15.20;;;0.00;99.90;;;;;;4998399;28;20745;-87
2022/12/03 01:47:36;;;;;;;38.63;17.83;;;0.00;99.90;;;;;;4998254;28;20494;-87
2022/12/03 01:50:16;;;;;;;40.43;15.80;;;-0.10;99.90;;;;;;4998237;28;20175;-86
2022/12/03 01:52:43;;;;;;;43.93;16.63;;;0.00;99.90;;;;;;4998257;28;20218;-86
2022/12/03 01:55:16;;;;;;;43.50;17.80;;;0.00;99.90;;;;;;4997709;28;20187;-86
2022/12/03 01:57:46;;;;;;;38.53;16.63;;;-0.10;99.90;;;;;;4997755;28;20202;-87
2022/12/03 02:00:20;;;;;;;38.07;16.63;;;0.00;99.90;;;;;;4998279;28;20610;-87
2022/12/03 02:02:57;;;;;;;39.50;16.90;;;-0.10;99.90;;;;;;4997721;28;20220;-85
2022/12/03 02:05:29;;;;;;;43.30;16.57;;;0.00;99.90;;;;;;5015360;28;20163;-91
2022/12/03 02:07:57;;;;;;;43.93;18.07;;;-0.10;99.90;;;;;;4997944;28;20194;-85
2022/12/03 02:10:28;;;;;;;40.27;17.67;;;-0.10;99.90;;;;;;4997466;28;20202;-86
2022/12/03 02:13:04;;;;;;;42.67;17.83;;;0.00;99.90;;;;;;4997653;28;20184;-84
2022/12/03 02:15:29;;;;;;;49.43;19.30;;;-0.10;99.90;;;;;;4997829;28;20254;-85
2022/12/03 02:17:56;;;;;;;47.43;19.33;;;-0.10;99.90;;;;;;5014345;28;20214;-85
2022/12/03 02:20:22;;;;;;;49.77;18.87;;;-0.10;99.90;;;;;;5014944;28;20230;-84
2022/12/03 02:22:56;;;;;;;47.33;18.60;;;-0.10;99.90;;;;;;5015070;28;20206;-85
2022/12/03 02:25:26;;;;;;;47.13;19.63;;;-0.10;99.90;;;;;;5013580;28;20233;-85
2022/12/03 02:27:54;;;;;;;49.13;19.30;;;-0.10;99.90;;;;;;5013673;28;20183;-85
2022/12/03 02:30:23;;;;;;;52.63;18.90;;;-0.20;99.90;;;;;;5013650;28;20175;-85
2022/12/03 02:32:50;;;;;;;45.13;18.70;;;-0.20;99.90;;;;;;4997054;28;20278;-85
2022/12/03 02:35:19;;;;;;;47.73;19.53;;;-0.20;99.90;;;;;;4997198;28;20606;-85
2022/12/03 02:37:50;;;;;;;44.73;19.07;;;-0.20;99.90;;;;;;5006106;28;20633;-84
2022/12/03 02:40:23;;;;;;;51.80;18.70;;;-0.20;99.90;;;;;;5032959;28;20197;-84
2022/12/03 02:42:52;;;;;;;49.67;19.57;;;-0.20;99.90;;;;;;5032871;28;20206;-85
2022/12/03 02:47:56;;;;;;;55.17;20.43;;;-0.30;99.90;;;;;;5000554;28;20229;-86
2022/12/03 02:50:44;;;;;;;56.03;21.13;;;-0.30;99.90;;;;;;5033461;28;20179;-83
2022/12/03 02:53:16;;;;;;;50.87;19.57;;;-0.30;99.90;;;;;;5016184;28;20209;-85
2022/12/03 02:55:42;;;;;;;58.20;21.93;;;-0.30;99.90;;;;;;5033844;28;20167;-84
2022/12/03 02:58:08;;;;;;;58.33;22.53;;;-0.30;99.90;;;;;;5016270;28;20190;-84
2022/12/03 03:00:35;;;;;;;57.80;21.40;;;-0.30;99.90;;;;;;5034226;28;20166;-85
2022/12/03 03:03:02;;;;;;;62.00;22.67;;;-0.30;99.90;;;;;;5016249;28;20552;-82
2022/12/03 03:05:28;;;;;;;62.63;23.70;;;-0.30;99.90;;;;;;5033995;28;20669;-85
2022/12/03 03:07:57;;;;;;;56.53;22.37;;;-0.30;99.90;;;;;;5016245;28;20244;-82
2022/12/03 03:10:24;;;;;;;59.53;22.83;;;-0.30;99.90;;;;;;5033433;28;20171;-85
2022/12/03 03:12:52;;;;;;;59.70;23.93;;;-0.40;99.90;;;;;;5016117;28;20186;-84
2022/12/03 03:15:18;;;;;;;60.77;23.23;;;-0.30;99.90;;;;;;5016182;28;20526;-84
2022/12/03 03:17:45;;;;;;;60.97;24.33;;;-0.30;99.90;;;;;;5033774;28;20182;-86
2022/12/03 03:20:12;;;;;;;58.07;24.17;;;-0.30;99.90;;;;;;5033960;28;20171;-84
2022/12/03 03:22:40;;;;;;;59.60;23.83;;;-0.30;99.90;;;;;;5033692;28;20356;-85
2022/12/03 03:25:12;;;;;;;65.57;25.17;;;-0.30;99.90;;;;;;5015247;28;20642;-85
2022/12/03 03:27:39;;;;;;;59.93;22.90;;;-0.30;99.90;;;;;;4996688;28;20274;-86
2022/12/03 03:30:05;;;;;;;63.80;24.63;;;-0.30;99.90;;;;;;5014055;28;20174;-85
2022/12/03 03:32:31;;;;;;;63.90;24.57;;;-0.30;99.90;;;;;;5014178;28;20179;-85
2022/12/03 03:34:57;;;;;;;57.83;23.23;;;-0.30;99.90;;;;;;5014055;28;20173;-86
2022/12/03 03:37:24;;;;;;;59.23;22.87;;;-0.40;99.90;;;;;;4996407;28;20213;-88
2022/12/03 03:39:50;;;;;;;59.20;22.37;;;-0.40;99.90;;;;;;4996353;28;20175;-83
2022/12/03 03:42:17;;;;;;;65.13;23.37;;;-0.30;99.90;;;;;;4996360;28;20230;-85
2022/12/03 03:44:43;;;;;;;68.93;26.07;;;-0.40;99.90;;;;;;5013985;28;20178;-85
2022/12/03 03:47:09;;;;;;;58.33;23.23;;;-0.40;99.90;;;;;;4996197;28;20285;-84
2022/12/03 03:49:35;;;;;;;54.73;23.30;;;-0.40;99.90;;;;;;4996561;28;20179;-85
2022/12/03 03:52:01;;;;;;;63.53;24.57;;;-0.40;99.90;;;;;;4996409;28;20689;-84
2022/12/03 03:54:27;;;;;;;60.73;23.80;;;-0.40;99.90;;;;;;5008820;28;20613;-84
2022/12/03 03:56:53;;;;;;;58.07;21.87;;;-0.40;99.90;;;;;;5032462;28;20182;-86
2022/12/03 03:59:20;;;;;;;60.33;23.67;;;-0.50;99.90;;;;;;5031634;28;20187;-85
2022/12/03 04:01:46;;;;;;;59.67;24.67;;;-0.50;99.90;;;;;;5017601;28;20242;-86
2022/12/03 04:04:19;;;;;;;59.73;24.30;;;-0.40;99.90;;;;;;5037176;28;20225;-84
2022/12/03 04:06:45;;;;;;;60.43;22.57;;;-0.40;99.90;;;;;;5037215;28;20465;-85
2022/12/03 04:09:11;;;;;;;55.20;23.17;;;-0.40;99.90;;;;;;5037045;28;20244;-86
2022/12/03 04:14:21;;;;;;;62.73;23.60;;;-0.40;99.90;;;;;;5036411;28;20186;-87
2022/12/03 04:16:47;;;;;;;57.87;23.40;;;-0.50;99.90;;;;;;5037024;28;20170;-86
2022/12/03 04:19:13;;;;;;;59.03;22.33;;;-0.50;99.90;;;;;;5035890;28;20183;-86
2022/12/03 04:24:22;;;;;;;53.17;21.73;;;-0.50;99.90;;;;;;5036401;28;20582;-87
2022/12/03 04:29:33;;;;;;;64.10;25.13;;;-0.50;99.90;;;;;;5036664;28;20236;-86
2022/12/03 04:37:28;;;;;;;58.57;22.83;;;-0.50;99.90;;;;;;5037055;28;20986;-86
2022/12/03 04:39:54;;;;;;;63.30;24.33;;;-0.50;99.90;;;;;;5036823;28;20249;-86
2022/12/03 04:42:20;;;;;;;57.67;24.07;;;-0.50;99.90;;;;;;5019130;28;20235;-86
2022/12/03 04:44:45;;;;;;;64.60;26.03;;;-0.50;99.90;;;;;;5036316;28;20182;-86
2022/12/03 04:47:17;;;;;;;66.13;24.80;;;-0.50;99.90;;;;;;5018698;28;20635;-86
2022/12/03 04:49:45;;;;;;;63.63;23.47;;;-0.50;99.90;;;;;;5036546;28;20195;-86
2022/12/03 04:52:13;;;;;;;57.77;23.10;;;-0.60;99.90;;;;;;5018812;28;20175;-85
2022/12/03 04:54:39;;;;;;;53.60;22.40;;;-0.50;99.90;;;;;;5018687;28;20186;-83
2022/12/03 04:57:06;;;;;;;52.20;21.83;;;-0.50;99.90;;;;;;5036569;28;20213;-84
2022/12/03 04:59:36;;;;;;;55.17;22.10;;;-0.40;99.90;;;;;;5018494;28;20187;-86
2022/12/03 05:02:03;;;;;;;58.30;21.90;;;-0.50;99.90;;;;;;5018701;28;20202;-86
2022/12/03 05:04:29;;;;;;;58.30;24.00;;;-0.50;99.90;;;;;;5018569;28;20183;-85
2022/12/03 05:06:54;;;;;;;54.60;23.23;;;-0.50;99.90;;;;;;5018388;28;20617;-83
2022/12/03 05:09:21;;;;;;;52.37;22.10;;;-0.50;99.90;;;;;;5018590;28;20182;-86
2022/12/03 05:11:47;;;;;;;53.90;22.43;;;-0.50;99.90;;;;;;5018496;28;20171;-86
2022/12/03 05:14:13;;;;;;;49.87;21.23;;;-0.50;99.90;;;;;;5017763;28;20183;-85
2022/12/03 05:16:39;;;;;;;48.77;20.90;;;-0.50;99.90;;;;;;5018191;28;20193;-86
2022/12/03 05:19:06;;;;;;;53.73;21.73;;;-0.50;99.90;;;;;;5036155;28;20229;-86
2022/12/03 05:21:35;;;;;;;53.93;23.07;;;-0.50;99.90;;;;;;5035853;28;20203;-86
2022/12/03 05:24:01;;;;;;;54.20;22.70;;;-0.50;99.90;;;;;;5018013;28;20609;-86
2022/12/03 05:26:27;;;;;;;49.27;21.03;;;-0.50;99.90;;;;;;5018279;28;20170;-85
2022/12/03 05:28:58;;;;;;;59.33;23.77;;;-0.50;99.90;;;;;;5036264;28;20622;-87
2022/12/03 05:31:24;;;;;;;56.27;24.13;;;-0.50;99.90;;;;;;5035546;28;20186;-86
2022/12/03 05:33:50;;;;;;;56.73;23.33;;;-0.60;99.90;;;;;;5035824;28;20598;-86
2022/12/03 05:36:16;;;;;;;58.10;22.47;;;-0.60;99.90;;;;;;5035804;28;20228;-86
2022/12/03 05:38:42;;;;;;;60.53;22.47;;;-0.60;99.90;;;;;;5017771;28;20341;-86
2022/12/03 05:43:54;;;;;;;58.80;23.30;;;-0.60;99.90;;;;;;5035871;28;20177;-85
2022/12/03 05:46:19;;;;;;;56.73;23.73;;;-0.60;99.90;;;;;;5033706;28;20680;-86
2022/12/03 05:48:46;;;;;;;55.93;23.53;;;-0.70;99.90;;;;;;5017733;28;20191;-86
2022/12/03 05:51:12;;;;;;;62.23;23.93;;;-0.70;99.90;;;;;;5017791;28;20183;-86
2022/12/03 05:53:38;;;;;;;53.90;23.20;;;-0.60;99.90;;;;;;5017471;28;20193;-85
2022/12/03 05:56:04;;;;;;;64.13;23.87;;;-0.60;99.90;;;;;;5017652;28;20313;-85
2022/12/03 05:58:29;;;;;;;61.70;24.77;;;-0.70;99.90;;;;;;5017499;28;20499;-85
2022/12/03 06:00:55;;;;;;;61.93;24.00;;;-0.70;99.90;;;;;;5017349;28;20277;-84
2022/12/03 06:03:21;;;;;;;66.00;24.43;;;-0.70;99.90;;;;;;5017266;28;20219;-84
2022/12/03 06:05:46;;;;;;;56.97;23.93;;;-0.70;99.90;;;;;;5017355;28;20189;-86
2022/12/03 06:08:12;;;;;;;57.03;24.03;;;-0.70;99.90;;;;;;5035072;28;20515;-85
2022/12/03 06:10:38;;;;;;;65.93;25.40;;;-0.70;99.90;;;;;;5017438;28;20198;-87
2022/12/03 06:13:04;;;;;;;57.53;24.53;;;-0.70;99.90;;;;;;5017165;28;20265;-86
2022/12/03 06:15:29;;;;;;;62.97;24.30;;;-0.70;99.90;;;;;;5016894;28;20232;-86
2022/12/03 06:17:55;;;;;;;58.47;23.90;;;-0.70;99.90;;;;;;5017094;28;20186;-85
2022/12/03 06:20:21;;;;;;;63.00;26.07;;;-0.70;99.90;;;;;;5034859;28;20590;-85
2022/12/03 06:22:47;;;;;;;62.63;25.03;;;-0.70;99.90;;;;;;5034754;28;20210;-84
2022/12/03 06:25:13;;;;;;;62.10;25.70;;;-0.70;99.90;;;;;;5033381;28;20189;-86
2022/12/03 06:27:39;;;;;;;55.73;25.20;;;-0.80;99.90;;;;;;5017126;28;20193;-86
2022/12/03 06:30:07;;;;;;;57.43;24.97;;;-0.80;99.90;;;;;;5034337;28;20174;-84
2022/12/03 06:32:33;;;;;;;58.33;25.07;;;-0.80;99.90;;;;;;5016902;28;20182;-85
2022/12/03 06:34:59;;;;;;;62.90;25.27;;;-0.70;99.90;;;;;;5034626;28;20616;-85
2022/12/03 06:37:24;;;;;;;69.13;25.87;;;-0.80;99.90;;;;;;5033331;28;20221;-86
2022/12/03 06:39:50;;;;;;;62.60;24.90;;;-0.80;99.90;;;;;;5034756;28;20592;-86
2022/12/03 06:42:16;;;;;;;67.33;24.97;;;-0.80;99.90;;;;;;5033227;28;20217;-85
2022/12/03 06:44:41;;;;;;;60.10;25.20;;;-0.80;99.90;;;;;;5032854;28;20179;-85
2022/12/03 06:47:07;;;;;;;67.77;24.67;;;-0.80;99.90;;;;;;5005159;28;20230;-84
2022/12/03 06:49:33;;;;;;;60.03;25.37;;;-0.80;99.90;;;;;;5002029;28;20583;-85
2022/12/03 06:51:59;;;;;;;64.63;25.43;;;-0.80;99.90;;;;;;4996989;28;20187;-85
2022/12/03 06:54:25;;;;;;;61.73;26.23;;;-0.80;99.90;;;;;;5005913;28;20612;-86
2022/12/03 06:56:50;;;;;;;60.13;25.37;;;-0.80;99.90;;;;;;5033981;28;20174;-85
2022/12/03 06:59:17;;;;;;;66.60;26.80;;;-0.80;99.90;;;;;;5032891;28;20525;-86
2022/12/03 07:01:43;;;;;;;64.07;26.23;;;-0.80;99.90;;;;;;5032501;28;20530;-86
2022/12/03 07:04:08;;;;;;;67.47;27.47;;;-0.90;99.90;;;;;;5033922;28;20185;-85
2022/12/03 07:06:34;;;;;;;64.97;26.80;;;-0.90;99.90;;;;;;5032482;28;20651;-86
2022/12/03 07:09:00;;;;;;;58.30;26.63;;;-0.90;99.90;;;;;;5028717;28;20202;-84
2022/12/03 07:11:31;;;;;;;62.77;26.03;;;-0.90;99.90;;;;;;5005297;28;20199;-85
2022/12/03 07:14:01;;;;;;;60.87;24.93;;;-0.90;99.90;;;;;;5009272;28;20260;-85
2022/12/03 07:16:27;;;;;;;61.57;26.00;;;-0.80;99.90;;;;;;5033046;28;20273;-85
2022/12/03 07:18:53;;;;;;;59.93;27.13;;;-0.90;99.90;;;;;;5033606;28;20183;-85
2022/12/03 07:21:19;;;;;;;65.50;27.03;;;-0.90;99.90;;;;;;5013975;28;20189;-86
2022/12/03 07:23:45;;;;;;;73.13;27.90;;;-0.90;99.90;;;;;;4995717;28;20282;-85
2022/12/03 07:26:10;;;;;;;63.13;26.23;;;-0.90;99.90;;;;;;5009148;28;20186;-85
2022/12/03 07:28:36;;;;;;;59.13;25.57;;;-0.80;99.90;;;;;;5015615;28;20508;-85
2022/12/03 07:31:02;;;;;;;59.03;26.40;;;-0.80;99.90;;;;;;5033426;28;20178;-85
2022/12/03 07:33:27;;;;;;;65.80;26.83;;;-0.90;99.90;;;;;;5015867;28;20183;-85
2022/12/03 07:35:53;;;;;;;65.43;27.10;;;-0.80;99.90;;;;;;5015923;28;20197;-85
2022/12/03 07:38:19;;;;;;;67.47;27.47;;;-0.80;99.90;;;;;;5037390;28;20173;-85
2022/12/03 07:40:45;;;;;;;61.03;25.73;;;-0.80;99.90;;;;;;5004448;28;20287;-85
2022/12/03 07:43:11;;;;;;;59.30;26.43;;;-0.80;99.90;;;;;;5017468;28;20206;-84
2022/12/03 07:45:36;;;;;;;61.53;26.13;;;-0.80;99.90;;;;;;5000993;28;20186;-85
2022/12/03 07:48:02;;;;;;;60.40;26.37;;;-0.80;99.90;;;;;;5037326;28;20181;-85
2022/12/03 07:50:28;;;;;;;67.70;27.60;;;-0.80;99.90;;;;;;5019650;28;20178;-85
2022/12/03 07:52:54;;;;;;;67.63;26.53;;;-0.80;99.90;;;;;;5017601;28;20175;-85
2022/12/03 07:55:20;;;;;;;66.73;27.60;;;-0.80;99.90;;;;;;5008799;28;20194;-84
2022/12/03 07:57:46;;;;;;;65.23;28.27;;;-0.80;99.90;;;;;;5015799;28;20187;-84
2022/12/03 08:00:13;;;;;;;67.93;26.30;;;-0.80;99.90;;;;;;5017351;28;20186;-84
2022/12/03 08:02:39;;;;;;;74.60;28.10;;;-0.80;99.90;;;;;;5035409;28;20249;-84
2022/12/03 08:05:05;;;;;;;60.80;26.10;;;-0.80;99.90;;;;;;5032733;28;20290;-85
2022/12/03 08:07:31;;;;;;;71.17;29.07;;;-0.80;99.90;;;;;;5009718;28;20246;-85
2022/12/03 08:09:57;;;;;;;63.00;26.97;;;-0.80;99.90;;;;;;5018008;28;20603;-85
2022/12/03 08:12:38;;;;;;;58.40;26.33;;;-0.70;99.90;;;;;;5035357;28;20513;-84
2022/12/03 08:15:09;;;;;;;66.23;27.87;;;-0.70;99.90;;;;;;5036763;28;20174;-85
2022/12/03 08:17:37;;;;;;;62.27;27.47;;;-0.70;99.90;;;;;;5035423;28;20269;-84
2022/12/03 08:20:15;;;;;;;67.53;28.80;;;-0.70;99.90;;;;;;5019173;28;20186;-84
2022/12/03 08:22:43;;;;;;;61.63;27.27;;;-0.70;99.90;;;;;;5017442;28;20221;-83
2022/12/03 08:25:32;;;;;;;67.20;29.43;;;-0.70;99.90;;;;;;5036269;28;20249;-85
2022/12/03 08:28:11;;;;;;;59.10;26.77;;;-0.70;99.90;;;;;;5009879;28;20190;-84
2022/12/03 08:30:37;;;;;;;62.77;28.33;;;-0.60;99.90;;;;;;5036173;28;20170;-85
2022/12/03 08:33:17;;;;;;;66.40;27.27;;;-0.60;99.90;;;;;;5017523;28;20270;-84
2022/12/03 08:35:52;;;;;;;65.00;27.47;;;-0.60;99.90;;;;;;5018427;28;20190;-84
2022/12/03 08:38:21;;;;;;;63.87;27.53;;;-0.60;99.90;;;;;;5017471;28;20178;-84
2022/12/03 08:40:49;;;;;;;54.10;25.33;;;-0.60;99.90;;;;;;5018322;28;20583;-84
2022/12/03 08:43:27;;;;;;;57.23;26.03;;;-0.60;99.90;;;;;;5036040;28;20645;-84
2022/12/03 08:45:54;;;;;;;63.87;27.63;;;-0.60;99.90;;;;;;5036064;28;20226;-84
2022/12/03 08:48:24;;;;;;;65.97;27.33;;;-0.60;99.90;;;;;;5016294;28;20190;-84
2022/12/03 08:50:51;;;;;;;58.77;26.67;;;-0.60;99.90;;;;;;5036282;28;20171;-85
2022/12/03 08:53:49;;;;;;;58.90;27.80;;;-0.70;99.90;;;;;;5035097;28;20205;-84
2022/12/03 08:56:28;;;;;;;68.47;28.60;;;-0.70;99.90;;;;;;5018148;28;20178;-85
2022/12/03 08:59:14;;;;;;;62.30;27.50;;;-0.70;99.90;;;;;;5010042;28;20193;-84
2022/12/03 09:01:44;;;;;;;58.80;26.93;;;-0.60;99.90;;;;;;5000675;28;20219;-85
2022/12/03 09:04:13;;;;;;;61.10;27.93;;;-0.60;99.90;;;;;;4998568;28;20186;-84
2022/12/03 09:06:39;;;;;;;63.70;28.50;;;-0.60;99.90;;;;;;5014914;28;20222;-84
2022/12/03 09:09:04;;;;;;;66.90;27.70;;;-0.60;99.90;;;;;;5023573;28;20210;-85
2022/12/03 09:11:30;;;;;;;66.03;28.47;;;-0.70;99.90;;;;;;4998655;28;20179;-85
2022/12/03 09:13:56;;;;;;;59.37;28.03;;;-0.70;99.90;;;;;;4998181;28;20278;-84
2022/12/03 09:16:22;;;;;;;61.97;27.80;;;-0.60;99.90;;;;;;5014573;28;20186;-85
2022/12/03 09:18:47;;;;;;;60.47;28.60;;;-0.60;99.90;;;;;;5014291;28;20218;-85
2022/12/03 09:21:13;;;;;;;68.60;29.73;;;-0.60;99.90;;;;;;4997669;28;20214;-85
2022/12/03 09:23:39;;;;;;;60.83;27.93;;;-0.70;99.90;;;;;;5002571;28;20923;-84
2022/12/03 09:26:04;;;;;;;61.37;28.20;;;-0.60;99.90;;;;;;5017534;28;20236;-85
2022/12/03 09:28:30;;;;;;;64.77;28.67;;;-0.60;99.90;;;;;;5035244;28;20174;-85
2022/12/03 09:30:56;;;;;;;60.70;28.77;;;-0.60;99.90;;;;;;5017526;28;20179;-85
2022/12/03 09:33:21;;;;;;;64.03;28.10;;;-0.60;99.90;;;;;;5035521;28;20182;-85
2022/12/03 09:35:47;;;;;;;55.77;25.80;;;-0.60;99.90;;;;;;5017503;28;20182;-85
2022/12/03 09:38:13;;;;;;;61.57;27.67;;;-0.60;99.90;;;;;;5017802;28;20644;-85
2022/12/03 09:40:39;;;;;;;63.70;27.53;;;-0.60;99.90;;;;;;5017396;28;20194;-84
2022/12/03 09:43:06;;;;;;;62.87;28.30;;;-0.60;99.90;;;;;;5035159;28;20749;-86
2022/12/03 09:45:32;;;;;;;66.40;29.70;;;-0.60;99.90;;;;;;5017603;28;20599;-84
2022/12/03 09:47:59;;;;;;;56.03;25.67;;;-0.60;99.90;;;;;;5017106;28;20221;-85
2022/12/03 09:50:26;;;;;;;63.87;29.03;;;-0.60;99.90;;;;;;5033472;28;20173;-85
2022/12/03 09:52:55;;;;;;;60.77;28.30;;;-0.60;99.90;;;;;;5016251;28;20198;-85
2022/12/03 09:55:24;;;;;;;60.77;27.77;;;-0.60;99.90;;;;;;5016330;28;20189;-84
2022/12/03 09:57:54;;;;;;;59.97;27.87;;;-0.60;99.90;;;;;;5017436;28;20206;-85
2022/12/03 10:00:26;;;;;;;62.17;28.07;;;-0.60;99.90;;;;;;5017383;28;20517;-84
2022/12/03 10:03:14;;;;;;;61.37;27.07;;;-0.60;99.90;;;;;;4989770;28;20776;-85
2022/12/03 10:05:39;;;;;;;60.67;28.53;;;-0.60;99.90;;;;;;5017229;28;20174;-85
2022/12/03 10:08:12;;;;;;;54.33;25.70;;;-0.60;99.90;;;;;;5034708;28;20231;-85
2022/12/03 10:10:40;;;;;;;61.57;26.80;;;-0.60;99.90;;;;;;5034475;28;20230;-84
2022/12/03 10:13:12;;;;;;;61.00;28.43;;;-0.60;99.90;;;;;;5016905;28;20189;-85
2022/12/03 10:15:38;;;;;;;56.70;27.40;;;-0.60;99.90;;;;;;5015547;28;20184;-85
2022/12/03 10:18:21;;;;;;;55.97;27.73;;;-0.50;99.90;;;;;;5000394;28;20622;-85
2022/12/03 10:20:47;;;;;;;60.37;26.50;;;-0.60;99.90;;;;;;5012496;28;20186;-84
2022/12/03 10:23:28;;;;;;;66.57;29.83;;;-0.50;99.90;;;;;;5034271;28;20218;-84
2022/12/03 10:25:55;;;;;;;60.83;28.80;;;-0.50;99.90;;;;;;5016301;28;20526;-84
2022/12/03 10:28:47;;;;;;;56.93;28.27;;;-0.50;99.90;;;;;;5016670;28;20175;-84
2022/12/03 10:31:14;;;;;;;54.40;27.80;;;-0.50;99.90;;;;;;5013443;28;20186;-84
2022/12/03 10:33:43;;;;;;;57.47;26.23;;;-0.40;99.90;;;;;;5013349;28;20179;-83
2022/12/03 10:36:22;;;;;;;54.17;25.10;;;-0.40;99.90;;;;;;5005578;28;20521;-85
2022/12/03 10:39:08;;;;;;;61.53;27.43;;;-0.40;99.90;;;;;;5013777;28;20174;-84
2022/12/03 10:41:35;;;;;;;57.87;26.97;;;-0.40;99.90;;;;;;5033441;28;20174;-84
2022/12/03 10:44:14;;;;;;;59.13;27.60;;;-0.40;99.90;;;;;;5015921;28;20237;-84
2022/12/03 10:46:40;;;;;;;56.73;27.70;;;-0.40;99.90;;;;;;5015749;28;20228;-84
2022/12/03 10:49:18;;;;;;;56.77;27.03;;;-0.40;99.90;;;;;;5016300;28;20182;-84
2022/12/03 10:51:46;;;;;;;58.13;28.10;;;-0.40;99.90;;;;;;5016565;28;20187;-84
2022/12/03 10:54:23;;;;;;;54.10;26.90;;;-0.40;99.90;;;;;;5033953;28;20704;-85
2022/12/03 10:56:50;;;;;;;62.67;27.23;;;-0.40;99.90;;;;;;5016203;28;20182;-85
2022/12/03 10:59:24;;;;;;;57.53;25.40;;;-0.30;99.90;;;;;;5016118;28;20175;-84
2022/12/03 11:01:51;;;;;;;55.97;27.23;;;-0.40;99.90;;;;;;5014775;28;20297;-84
2022/12/03 11:04:30;;;;;;;59.97;26.60;;;-0.30;99.90;;;;;;5006387;28;20175;-84
2022/12/03 11:06:56;;;;;;;56.07;26.53;;;-0.30;99.90;;;;;;5013723;28;20250;-85
2022/12/03 11:09:28;;;;;;;50.57;26.10;;;-0.30;99.90;;;;;;5014000;28;20257;-83
2022/12/03 11:11:54;;;;;;;54.43;26.43;;;-0.30;99.90;;;;;;5013471;28;20676;-84
2022/12/03 11:15:03;;;;;;;58.30;26.73;;;-0.40;99.90;;;;;;4996332;28;20266;-84
2022/12/03 11:17:49;;;;;;;50.90;25.60;;;-0.40;99.90;;;;;;5013865;28;20197;-84
2022/12/03 11:20:23;;;;;;;57.00;26.03;;;-0.40;99.90;;;;;;5018837;28;20199;-85
2022/12/03 11:22:50;;;;;;;55.00;26.50;;;-0.40;99.90;;;;;;5014953;28;20666;-83
2022/12/03 11:25:24;;;;;;;57.40;27.07;;;-0.40;99.90;;;;;;5032491;28;20195;-84
2022/12/03 11:28:09;;;;;;;56.30;27.43;;;-0.40;99.90;;;;;;5013866;28;20478;-84
2022/12/03 11:30:50;;;;;;;56.70;25.93;;;-0.40;99.90;;;;;;5030276;28;20209;-83
2022/12/03 11:33:24;;;;;;;53.17;26.70;;;-0.40;99.90;;;;;;5033298;28;20179;-84
2022/12/03 11:36:02;;;;;;;56.00;26.77;;;-0.40;99.90;;;;;;5033344;28;20154;-84
2022/12/03 11:38:37;;;;;;;58.50;25.93;;;-0.40;99.90;;;;;;5032883;28;20188;-84
2022/12/03 11:41:15;;;;;;;56.07;26.83;;;-0.30;99.90;;;;;;5003285;28;20299;-85
2022/12/03 11:43:55;;;;;;;56.30;26.97;;;-0.40;99.90;;;;;;4997205;28;20298;-83
2022/12/03 11:46:24;;;;;;;61.07;27.00;;;-0.40;99.90;;;;;;5008686;28;20550;-84
2022/12/03 11:48:52;;;;;;;57.67;27.37;;;-0.40;99.90;;;;;;5012262;28;20214;-83
2022/12/03 11:51:21;;;;;;;57.23;27.03;;;-0.40;99.90;;;;;;5012492;28;20187;-83
2022/12/03 11:53:50;;;;;;;55.93;26.00;;;-0.30;99.90;;;;;;5012513;28;20194;-84
2022/12/03 11:56:23;;;;;;;60.33;28.50;;;-0.30;99.90;;;;;;5001666;28;20182;-84
2022/12/03 11:59:02;;;;;;;56.50;26.93;;;-0.30;99.90;;;;;;5009317;28;20187;-83
2022/12/03 12:01:36;;;;;;;57.37;26.40;;;-0.30;99.90;;;;;;5011583;28;20181;-84
2022/12/03 12:04:03;;;;;;;57.77;26.50;;;-0.30;99.90;;;;;;5007040;28;20663;-83
2022/12/03 12:06:43;;;;;;;51.37;25.83;;;-0.30;99.90;;;;;;5005863;28;20202;-83
2022/12/03 12:09:09;;;;;;;56.60;27.47;;;-0.30;99.90;;;;;;5004497;28;20199;-83
2022/12/03 12:11:40;;;;;;;53.03;26.13;;;-0.30;99.90;;;;;;5002291;28;20212;-83
2022/12/03 12:14:10;;;;;;;48.50;24.17;;;-0.30;99.90;;;;;;5001296;28;20187;-83
2022/12/03 12:16:41;;;;;;;54.43;27.37;;;-0.30;99.90;;;;;;5011123;28;20183;-83
2022/12/03 12:19:35;;;;;;;51.07;25.23;;;-0.30;99.90;;;;;;5012420;28;20225;-84
2022/12/03 12:22:25;;;;;;;52.30;26.40;;;-0.20;99.90;;;;;;5005821;28;20246;-83
2022/12/03 12:24:55;;;;;;;55.57;26.87;;;-0.20;99.90;;;;;;5026710;28;20522;-83
2022/12/03 12:27:33;;;;;;;53.33;26.07;;;-0.30;99.90;;;;;;5014994;28;20209;-83
2022/12/03 12:30:00;;;;;;;65.80;26.97;;;-0.20;99.90;;;;;;5010403;28;20580;-82
2022/12/03 12:32:46;;;;;;;57.57;28.90;;;-0.20;99.90;;;;;;5006032;28;20183;-83
2022/12/03 12:35:20;;;;;;;52.90;26.00;;;-0.20;99.90;;;;;;5003708;28;20193;-83
2022/12/03 12:37:49;;;;;;;54.50;29.07;;;-0.20;99.90;;;;;;5013356;28;20178;-83
2022/12/03 12:40:16;;;;;;;57.77;28.53;;;-0.20;99.90;;;;;;5013798;28;20282;-83
2022/12/03 12:42:56;;;;;;;53.27;26.90;;;-0.20;99.90;;;;;;5006347;28;20273;-83
2022/12/03 12:45:25;;;;;;;59.73;27.13;;;-0.20;99.90;;;;;;5002685;28;20481;-83
2022/12/03 12:48:15;;;;;;;59.33;28.13;;;-0.30;99.90;;;;;;4991715;28;20246;-82
2022/12/03 12:50:43;;;;;;;54.40;26.87;;;-0.30;99.90;;;;;;5005389;28;20205;-83
2022/12/03 12:53:30;;;;;;;54.20;27.87;;;-0.30;99.90;;;;;;4997835;28;20213;-83
2022/12/03 12:55:57;;;;;;;59.53;27.67;;;-0.30;99.90;;;;;;4996964;28;20249;-82
2022/12/03 12:58:24;;;;;;;53.23;27.47;;;-0.30;99.90;;;;;;4995238;28;20227;-84